Aeroporto :







RITROVATECI SU...

 
LOGIN :

Iscrizione | Disclaimer

   EN    FR    IT 

 









Sommario :    VFR   VFR Marginale   IFR   IFR Intensivo   IFR Molto Intensivo
Visibilità : 
Base nubi : 
>= 8 km
>= 3000ft
5 / 8 km
1000 / 3000 ft
1500m / 5 km
500 / 1000 ft
800 / 1500m
200 / 500 ft
< 800m
< 200 ft
Simboli :   Temporali  Nebbia  Neve Forte  Precipitazioni Forti  Vento > 20 kt






- Altitudine del aeroporto : 930 ft


KEFK - Newport State

ULTIMO METAR :
  • 012035Z AUTO 33008KT 10SM OVC031 04/M02 A2984 RMK AO2 T00351016

METARs OBSOLETI :
  • 012016Z AUTO 33008KT 10SM OVC029 03/M01 A2984 RMK AO2 T00331015
  • 011956Z AUTO 34009KT 10SM OVC029 04/M01 A2984 RMK AO2 T00351015
  • 011935Z AUTO 36010KT 10SM OVC029 04/M01 A2984 RMK AO2 T00351012
  • 011915Z AUTO 33010G14KT 10SM OVC031 04/M01 A2984 RMK AO2 T00351013
  • 011855Z AUTO 34009G14KT 10SM OVC029 04/M01 A2984 RMK AO2 T00391011
  • 011835Z AUTO 34010G14KT 10SM OVC029 03/M01 A2985 RMK AO2 T00341013
  • 011815Z AUTO 33009KT 10SM OVC029 03/M01 A2985 RMK AO2 T00301015
  • 011755Z AUTO 34009KT 10SM BKN029 BKN033 OVC070 03/M02 A2986 RMK AO2 T00301016 10041 21025

TAF N/A



MetMap, La meteo Aeronautica in un colpo d'occhio ! - Copyright ORBIFLY Dicembre 2007 - Disclaimer

ORBIFLY MET'MAP TEAM :

Programmazione e sviluppo : Alexandra Zaïnal
Concezione : Baudouin d'Aumeries
Aiuto per la programmazione : Marc-Olivier Méhu
Supporto tecnico e logistico : Manuel Goepfert
Aiuto per la traduzione : Arnaldo La Scala

Contatto : metmap@orbifly.com




FONTI E CREDITI :

   NOAA